createdAt,value
2019-02-19T00:00:40.110Z,73.93
2019-02-19T00:03:12.082Z,72.94
2019-02-19T00:05:42.552Z,72.88
2019-02-19T00:08:13.035Z,71.58
2019-02-19T00:10:45.080Z,71.58
2019-02-19T00:13:16.815Z,70.59
2019-02-19T00:16:03.309Z,71.89
2019-02-19T00:18:35.669Z,72.64
2019-02-19T00:21:07.021Z,72.64
2019-02-19T00:23:38.415Z,72.70
2019-02-19T00:26:13.791Z,72.82
2019-02-19T00:28:44.197Z,72.98
2019-02-19T00:31:14.673Z,73.06
2019-02-19T00:33:45.116Z,73.38
2019-02-19T00:36:17.134Z,73.12
2019-02-19T00:38:47.668Z,72.98
2019-02-19T00:41:34.166Z,72.69
2019-02-19T00:44:05.061Z,72.69
2019-02-19T00:46:35.515Z,73.21
2019-02-19T00:49:05.958Z,73.32
2019-02-19T00:54:25.719Z,73.80
2019-02-19T00:56:56.208Z,74.16
2019-02-19T00:59:26.686Z,74.16
2019-02-19T01:01:57.092Z,72.93
2019-02-19T01:04:27.503Z,73.52
2019-02-19T01:06:57.914Z,73.52
2019-02-19T01:09:28.655Z,73.59
2019-02-19T01:11:59.049Z,73.59
2019-02-19T01:14:29.500Z,73.83
2019-02-19T01:17:00.002Z,74.57
2019-02-19T01:22:19.832Z,75.63
2019-02-19T01:24:50.291Z,76.23
2019-02-19T01:27:20.741Z,74.60
2019-02-19T01:29:51.221Z,75.20
2019-02-19T01:32:21.648Z,75.73
2019-02-19T01:34:52.101Z,76.37
2019-02-19T01:37:22.490Z,76.37
2019-02-19T01:39:52.926Z,77.07
2019-02-19T01:42:23.359Z,76.78
2019-02-19T01:44:53.782Z,76.57
2019-02-19T01:47:25.075Z,76.21
2019-02-19T01:49:55.492Z,76.57
2019-02-19T01:52:25.971Z,77.40
2019-02-19T01:54:56.408Z,77.98
2019-02-19T01:57:27.249Z,78.22
2019-02-19T02:00:00.610Z,78.22
2019-02-19T02:02:31.044Z,77.74
2019-02-19T02:05:01.471Z,78.93
2019-02-19T02:07:31.881Z,79.58
2019-02-19T02:10:02.298Z,79.31
2019-02-19T02:12:32.705Z,79.28
2019-02-19T02:15:03.109Z,80.08
2019-02-19T02:17:33.521Z,80.28
2019-02-19T02:20:04.339Z,79.80
2019-02-19T02:22:36.397Z,79.84
2019-02-19T02:25:06.820Z,79.53
2019-02-19T02:27:38.842Z,79.49
2019-02-19T02:30:09.244Z,78.11
2019-02-19T02:32:39.694Z,77.96
2019-02-19T02:35:11.416Z,78.67
2019-02-19T02:37:41.958Z,77.83
2019-02-19T02:40:12.404Z,77.76
2019-02-19T02:42:42.825Z,77.57
2019-02-19T02:45:13.270Z,77.57
2019-02-19T02:47:43.723Z,77.93
2019-02-19T02:50:14.107Z,78.54
2019-02-19T02:52:44.591Z,79.61
2019-02-19T02:55:15.014Z,80.07
2019-02-19T02:57:45.409Z,79.54
2019-02-19T03:00:15.831Z,78.55
2019-02-19T03:02:46.293Z,78.88
2019-02-19T03:05:16.715Z,79.21
2019-02-19T03:07:48.688Z,79.68
2019-02-19T03:10:19.121Z,79.52
2019-02-19T03:12:49.566Z,79.38
2019-02-19T03:15:20.007Z,78.56
2019-02-19T03:17:50.401Z,78.56
2019-02-19T03:20:20.844Z,78.21
2019-02-19T03:22:51.305Z,78.53
2019-02-19T03:25:21.761Z,79.08
2019-02-19T03:27:52.141Z,78.99
2019-02-19T03:30:22.567Z,78.43
2019-02-19T03:32:52.987Z,78.68
2019-02-19T03:35:23.414Z,79.07
2019-02-19T03:37:53.860Z,79.61
2019-02-19T03:40:25.250Z,79.94
2019-02-19T03:42:55.731Z,79.58
2019-02-19T03:45:26.166Z,79.49
2019-02-19T03:47:56.591Z,78.97
2019-02-19T03:50:30.784Z,78.74
2019-02-19T03:53:01.236Z,78.71
2019-02-19T03:55:31.652Z,79.69
2019-02-19T03:58:03.568Z,79.50
2019-02-19T04:00:34.019Z,79.37
2019-02-19T04:03:04.458Z,79.27
2019-02-19T04:05:36.481Z,79.10
2019-02-19T04:08:09.673Z,79.24
2019-02-19T04:10:40.121Z,79.07
2019-02-19T04:13:10.567Z,79.69
2019-02-19T04:15:41.410Z,79.82
2019-02-19T04:18:11.867Z,79.53
2019-02-19T04:20:42.335Z,79.25
2019-02-19T04:23:12.815Z,79.79
2019-02-19T04:25:44.261Z,79.54
2019-02-19T04:28:16.949Z,78.85
2019-02-19T04:30:47.347Z,79.62
2019-02-19T04:33:18.774Z,79.70
2019-02-19T04:35:50.604Z,80.59
2019-02-19T04:38:23.277Z,81.99
2019-02-19T04:40:53.696Z,82.52
2019-02-19T04:43:25.277Z,83.11
2019-02-19T04:45:55.711Z,82.11
2019-02-19T04:48:27.799Z,82.11
2019-02-19T04:50:59.762Z,80.79
2019-02-19T04:53:33.752Z,79.76
2019-02-19T04:56:04.191Z,80.55
2019-02-19T04:58:34.609Z,80.16
2019-02-19T05:01:05.137Z,80.57
2019-02-19T05:03:35.736Z,80.92
2019-02-19T05:06:06.157Z,82.15
2019-02-19T05:08:36.610Z,82.99
2019-02-19T05:11:09.137Z,83.60
2019-02-19T05:13:39.563Z,83.59
2019-02-19T05:16:09.963Z,83.13
2019-02-19T05:18:40.401Z,82.31
2019-02-19T05:21:12.219Z,81.32
2019-02-19T05:23:44.122Z,82.07
2019-02-19T05:26:16.186Z,82.69
2019-02-19T05:28:46.601Z,83.00
2019-02-19T05:31:17.066Z,83.45
2019-02-19T05:33:47.492Z,82.75
2019-02-19T05:36:17.914Z,82.76
2019-02-19T05:38:48.364Z,83.12
2019-02-19T05:41:18.793Z,82.53
2019-02-19T05:43:49.596Z,82.26
2019-02-19T05:46:20.626Z,81.22
2019-02-19T05:48:51.146Z,80.04
2019-02-19T05:51:21.534Z,80.04
2019-02-19T05:53:53.556Z,78.02
2019-02-19T05:56:25.676Z,78.02
2019-02-19T05:58:57.682Z,77.52
2019-02-19T06:01:30.156Z,77.52
2019-02-19T06:04:01.003Z,76.77
2019-02-19T06:06:31.420Z,76.80
2019-02-19T06:09:01.829Z,76.80
2019-02-19T06:11:32.253Z,73.08
2019-02-19T06:14:02.706Z,71.79
2019-02-19T06:16:33.138Z,71.79
2019-02-19T06:19:03.552Z,72.60
2019-02-19T06:21:34.006Z,70.84
2019-02-19T06:24:04.443Z,70.74
2019-02-19T06:26:34.878Z,70.34
2019-02-19T06:29:05.284Z,70.47
2019-02-19T06:31:35.677Z,69.83
2019-02-19T06:34:06.080Z,69.83
2019-02-19T06:36:36.481Z,69.95
2019-02-19T06:39:06.886Z,69.51
2019-02-19T06:41:37.308Z,68.72
2019-02-19T06:44:07.715Z,67.19
2019-02-19T06:46:38.138Z,67.19
2019-02-19T06:49:08.536Z,66.55
2019-02-19T06:51:38.933Z,66.55
2019-02-19T06:54:09.302Z,65.90
2019-02-19T06:56:39.712Z,65.44
2019-02-19T06:59:10.145Z,64.19
2019-02-19T07:01:58.152Z,64.49
2019-02-19T07:04:32.845Z,62.09
2019-02-19T07:07:03.272Z,62.25
2019-02-19T07:09:33.697Z,61.96
2019-02-19T07:12:04.108Z,62.23
2019-02-19T07:14:34.538Z,59.33
2019-02-19T07:17:04.934Z,60.38
2019-02-19T07:19:35.445Z,60.32
2019-02-19T07:22:05.894Z,59.99
2019-02-19T07:24:36.330Z,60.02
2019-02-19T07:27:06.743Z,59.37
2019-02-19T07:29:40.291Z,58.51
2019-02-19T07:32:15.928Z,58.49
2019-02-19T07:34:46.382Z,59.04
2019-02-19T07:37:16.774Z,59.15
2019-02-19T07:39:47.848Z,59.75
2019-02-19T07:42:20.988Z,59.83
2019-02-19T07:44:55.816Z,59.15
2019-02-19T07:47:29.789Z,58.81
2019-02-19T07:50:00.298Z,59.48
2019-02-19T07:52:32.252Z,59.48
2019-02-19T07:55:05.338Z,58.19
2019-02-19T07:57:37.346Z,57.57
2019-02-19T08:00:15.015Z,57.57
2019-02-19T08:02:45.416Z,58.21
2019-02-19T08:05:15.940Z,58.21
2019-02-19T08:07:46.350Z,57.07
2019-02-19T08:10:17.121Z,56.69
2019-02-19T08:12:47.518Z,56.69
2019-02-19T08:15:17.933Z,55.82
2019-02-19T08:17:48.313Z,55.90
2019-02-19T08:20:19.095Z,55.60
2019-02-19T08:22:49.641Z,54.05
2019-02-19T08:25:20.023Z,54.60
2019-02-19T08:27:51.292Z,54.09
2019-02-19T08:30:21.816Z,54.33
2019-02-19T08:32:52.208Z,54.33
2019-02-19T08:35:23.442Z,54.35
2019-02-19T08:37:53.822Z,53.97
2019-02-19T08:40:24.242Z,55.19
2019-02-19T08:42:54.678Z,55.13
2019-02-19T08:45:25.170Z,54.85
2019-02-19T08:47:55.623Z,54.71
2019-02-19T08:50:26.020Z,55.52
2019-02-19T08:52:56.423Z,55.29
2019-02-19T08:55:26.902Z,56.40
2019-02-19T08:57:57.291Z,56.25
2019-02-19T09:00:27.670Z,55.90
2019-02-19T09:02:58.087Z,55.49
2019-02-19T09:05:28.498Z,54.08
2019-02-19T09:07:58.886Z,53.15
2019-02-19T09:10:29.310Z,52.71
2019-02-19T09:12:59.708Z,52.98
2019-02-19T09:15:30.099Z,53.10
2019-02-19T09:18:00.524Z,53.88
2019-02-19T09:20:30.898Z,54.00
2019-02-19T09:23:01.635Z,53.46
2019-02-19T09:25:32.051Z,53.28
2019-02-19T09:28:02.444Z,53.20
2019-02-19T09:30:32.841Z,52.79
2019-02-19T09:33:03.329Z,53.48
2019-02-19T09:35:33.770Z,53.25
2019-02-19T09:38:04.149Z,51.99
2019-02-19T09:40:34.544Z,51.28
2019-02-19T09:43:04.973Z,51.43
2019-02-19T09:45:35.422Z,50.25
2019-02-19T09:48:05.841Z,48.94
2019-02-19T09:50:36.324Z,49.93
2019-02-19T09:53:06.769Z,50.72
2019-02-19T09:55:37.178Z,50.40
2019-02-19T09:58:07.607Z,49.42
2019-02-19T10:00:38.011Z,49.87
2019-02-19T10:03:08.470Z,49.33
2019-02-19T10:05:38.880Z,49.24
2019-02-19T10:08:10.708Z,48.66
2019-02-19T10:10:41.111Z,49.03
2019-02-19T10:13:11.497Z,48.44
2019-02-19T10:15:41.899Z,47.09
2019-02-19T10:18:12.300Z,47.49
2019-02-19T10:20:42.715Z,47.90
2019-02-19T10:23:13.108Z,49.19
2019-02-19T10:25:44.677Z,48.29
2019-02-19T10:28:16.152Z,48.34
2019-02-19T10:30:48.247Z,47.74
2019-02-19T10:33:18.707Z,48.25
2019-02-19T10:35:49.111Z,46.60
2019-02-19T10:38:19.521Z,46.04
2019-02-19T10:40:49.943Z,46.48
2019-02-19T10:43:20.321Z,47.36
2019-02-19T10:45:50.807Z,47.42
2019-02-19T10:48:21.232Z,47.02
2019-02-19T10:50:51.669Z,47.24
2019-02-19T10:53:22.084Z,45.95
2019-02-19T10:55:52.516Z,46.36
2019-02-19T10:58:23.380Z,45.89
2019-02-19T11:00:53.993Z,45.85
2019-02-19T11:03:24.412Z,44.19
2019-02-19T11:05:54.866Z,44.87
2019-02-19T11:08:25.294Z,44.79
2019-02-19T11:10:57.260Z,45.69
2019-02-19T11:13:27.675Z,46.37
2019-02-19T11:15:58.168Z,45.98
2019-02-19T11:18:29.021Z,46.32
2019-02-19T11:20:59.642Z,45.48
2019-02-19T11:23:30.053Z,46.13
2019-02-19T11:26:00.481Z,45.82
2019-02-19T11:28:30.948Z,44.73
2019-02-19T11:31:01.361Z,45.09
2019-02-19T11:33:31.814Z,44.79
2019-02-19T11:36:02.204Z,44.37
2019-02-19T11:38:33.587Z,43.83
2019-02-19T11:41:04.020Z,43.64
2019-02-19T11:43:44.669Z,43.84
2019-02-19T11:46:12.671Z,43.91
2019-02-19T11:48:58.200Z,43.75
2019-02-19T11:51:33.001Z,43.15
2019-02-19T11:54:06.367Z,44.73
2019-02-19T11:56:37.581Z,43.84
2019-02-19T11:59:08.740Z,44.38
2019-02-19T12:04:46.614Z,44.76
2019-02-19T12:07:17.089Z,45.05
2019-02-19T12:10:14.816Z,44.91
2019-02-19T12:12:19.657Z,44.30
2019-02-19T12:14:52.151Z,43.73
2019-02-19T12:17:26.879Z,43.55
2019-02-19T12:19:57.295Z,42.70
2019-02-19T12:22:30.723Z,42.80
2019-02-19T12:25:01.135Z,41.77
2019-02-19T12:27:36.522Z,42.67
2019-02-19T12:30:15.752Z,41.97
2019-02-19T12:32:46.151Z,43.04
2019-02-19T12:35:43.283Z,43.07
2019-02-19T12:38:17.160Z,44.39
2019-02-19T12:40:49.127Z,44.84
2019-02-19T12:43:27.196Z,45.45
2019-02-19T12:45:57.623Z,44.70
2019-02-19T12:48:28.102Z,44.38
2019-02-19T12:50:58.525Z,42.79
2019-02-19T12:53:40.867Z,43.52
2019-02-19T12:56:36.397Z,43.00
2019-02-19T12:59:09.718Z,42.39
2019-02-19T13:01:41.657Z,43.44
2019-02-19T13:04:14.048Z,44.01
2019-02-19T13:06:44.470Z,44.29
2019-02-19T13:09:16.382Z,44.40
2019-02-19T13:11:46.789Z,44.80
2019-02-19T13:14:19.569Z,44.97
2019-02-19T13:16:49.778Z,44.56
2019-02-19T13:19:20.223Z,45.01
2019-02-19T13:21:50.695Z,44.67
2019-02-19T13:24:21.119Z,44.76
2019-02-19T13:26:51.544Z,44.63
2019-02-19T13:29:21.978Z,45.49
2019-02-19T13:31:52.414Z,45.21
2019-02-19T13:34:22.838Z,45.67
2019-02-19T13:36:53.226Z,45.70
2019-02-19T13:39:23.692Z,45.53
2019-02-19T13:41:54.243Z,45.83
2019-02-19T13:44:24.698Z,46.78
2019-02-19T13:46:56.436Z,47.20
2019-02-19T13:49:27.054Z,46.30
2019-02-19T13:51:59.041Z,45.65
2019-02-19T13:54:31.038Z,46.07
2019-02-19T13:57:01.447Z,45.65
2019-02-19T13:59:31.841Z,45.88
2019-02-19T14:02:02.247Z,45.67
2019-02-19T14:04:33.230Z,45.51
2019-02-19T14:07:04.256Z,44.63
2019-02-19T14:09:34.832Z,44.33
2019-02-19T14:12:05.245Z,45.95
2019-02-19T14:14:37.235Z,45.14
2019-02-19T14:17:07.690Z,45.70
2019-02-19T14:19:46.677Z,45.26
2019-02-19T14:22:34.841Z,45.42
2019-02-19T14:25:17.535Z,45.76
2019-02-19T14:27:58.661Z,46.81
2019-02-19T14:30:42.555Z,47.11
2019-02-19T14:33:17.487Z,47.32
2019-02-19T14:35:52.172Z,47.91
2019-02-19T14:38:40.218Z,47.34
2019-02-19T14:41:18.140Z,47.28
2019-02-19T14:43:53.010Z,47.48
2019-02-19T14:46:43.134Z,47.67
2019-02-19T14:49:15.141Z,48.34
2019-02-19T14:52:04.809Z,48.95
2019-02-19T14:54:36.795Z,49.29
2019-02-19T14:57:10.305Z,49.78
2019-02-19T15:00:00.009Z,50.34
2019-02-19T15:02:41.496Z,50.06
2019-02-19T15:05:30.581Z,51.28
2019-02-19T15:11:36.597Z,52.40
2019-02-19T15:14:20.675Z,52.48
2019-02-19T15:17:17.416Z,52.89
2019-02-19T15:19:49.362Z,53.20
2019-02-19T15:22:38.120Z,53.32
2019-02-19T15:25:25.882Z,53.72
2019-02-19T15:28:13.003Z,54.11
2019-02-19T15:30:50.986Z,54.40
2019-02-19T15:33:44.420Z,54.40
2019-02-19T15:36:27.724Z,54.75
2019-02-19T15:39:04.443Z,55.32
2019-02-19T15:41:42.316Z,55.29
2019-02-19T15:44:22.520Z,55.34
2019-02-19T15:47:16.836Z,55.36
2019-02-19T15:50:08.646Z,55.20
2019-02-19T15:52:59.081Z,55.64
2019-02-19T15:55:49.376Z,55.94
2019-02-19T15:58:26.884Z,57.12
2019-02-19T16:01:24.869Z,56.78
2019-02-19T16:04:08.473Z,56.16
2019-02-19T16:06:47.328Z,57.11
2019-02-19T16:09:34.959Z,57.23
2019-02-19T16:12:22.120Z,57.76
2019-02-19T16:15:03.842Z,57.97
2019-02-19T16:18:08.984Z,58.32
2019-02-19T16:20:38.821Z,58.57
2019-02-19T16:23:26.920Z,58.46
2019-02-19T16:25:59.276Z,58.94
2019-02-19T16:28:48.173Z,58.74
2019-02-19T16:31:42.101Z,58.55
2019-02-19T16:34:14.128Z,58.99
2019-02-19T16:36:55.481Z,58.92
2019-02-19T16:39:34.312Z,58.88
2019-02-19T16:42:13.573Z,59.18
2019-02-19T16:45:02.371Z,59.82
2019-02-19T16:47:37.726Z,59.29
2019-02-19T16:50:20.204Z,60.67
2019-02-19T16:53:10.257Z,59.98
2019-02-19T16:55:47.729Z,60.60
2019-02-19T16:58:35.277Z,60.60
2019-02-19T17:01:07.641Z,60.57
2019-02-19T17:03:44.236Z,60.80
2019-02-19T17:06:16.411Z,60.81
2019-02-19T17:08:53.142Z,60.00
2019-02-19T17:11:29.183Z,59.55
2019-02-19T17:14:16.233Z,59.87
2019-02-19T17:16:57.243Z,60.02
2019-02-19T17:19:48.589Z,59.00
2019-02-19T17:22:36.931Z,59.00
2019-02-19T17:25:12.782Z,56.44
2019-02-19T17:27:53.137Z,56.81
2019-02-19T17:30:36.904Z,56.92
2019-02-19T17:33:15.542Z,56.79
2019-02-19T17:35:57.794Z,57.57
2019-02-19T17:38:35.715Z,57.10
2019-02-19T17:41:16.459Z,56.49
2019-02-19T17:44:05.800Z,56.17
2019-02-19T17:46:39.075Z,55.50
2019-02-19T17:49:16.361Z,56.21
2019-02-19T17:51:51.172Z,54.13
2019-02-19T17:54:27.736Z,53.12
2019-02-19T17:57:11.588Z,52.38
2019-02-19T18:00:07.271Z,52.34
2019-02-19T18:02:44.497Z,52.65
2019-02-19T18:05:18.566Z,52.43
2019-02-19T18:07:52.065Z,53.20
2019-02-19T18:10:29.799Z,54.56
2019-02-19T18:13:06.056Z,54.32
2019-02-19T18:15:45.562Z,54.73
2019-02-19T18:18:29.930Z,55.31
2019-02-19T18:20:58.809Z,55.31
2019-02-19T18:23:30.814Z,55.94
2019-02-19T18:26:09.888Z,55.61
2019-02-19T18:28:40.487Z,56.40
2019-02-19T18:31:17.273Z,56.44
2019-02-19T18:33:51.110Z,56.96
2019-02-19T18:36:24.962Z,56.59
2019-02-19T18:39:10.875Z,56.62
2019-02-19T18:41:35.093Z,56.71
2019-02-19T18:44:05.518Z,55.21
2019-02-19T18:46:38.664Z,55.36
2019-02-19T18:49:14.829Z,56.21
2019-02-19T18:51:48.038Z,56.69
2019-02-19T18:54:27.945Z,57.59
2019-02-19T18:56:58.364Z,55.81
2019-02-19T18:59:31.568Z,55.85
2019-02-19T19:02:13.407Z,55.20
2019-02-19T19:04:51.070Z,56.13
2019-02-19T19:07:24.758Z,56.95
2019-02-19T19:09:57.243Z,55.89
2019-02-19T19:12:35.212Z,56.38
2019-02-19T19:15:08.273Z,56.13
2019-02-19T19:17:40.414Z,56.08
2019-02-19T19:20:11.835Z,54.87
2019-02-19T19:22:42.295Z,55.35
2019-02-19T19:25:12.765Z,55.13
2019-02-19T19:27:43.306Z,53.84
2019-02-19T19:30:15.727Z,53.70
2019-02-19T19:32:46.233Z,54.11
2019-02-19T19:35:16.767Z,53.81
2019-02-19T19:37:47.193Z,52.29
2019-02-19T19:40:20.336Z,53.43
2019-02-19T19:42:54.730Z,52.35
2019-02-19T19:45:25.284Z,53.09
2019-02-19T19:47:57.594Z,53.30
2019-02-19T19:50:31.348Z,52.46
2019-02-19T19:53:01.736Z,52.86
2019-02-19T19:55:33.433Z,52.61
2019-02-19T19:58:04.216Z,53.66
2019-02-19T20:00:35.098Z,53.70
2019-02-19T20:03:05.513Z,53.36
2019-02-19T20:05:38.352Z,52.96
2019-02-19T20:08:13.921Z,53.50
2019-02-19T20:10:46.244Z,52.96
2019-02-19T20:13:16.677Z,53.16
2019-02-19T20:15:49.382Z,52.72
2019-02-19T20:18:22.659Z,53.33
2019-02-19T20:20:53.249Z,54.26
2019-02-19T20:23:23.751Z,54.10
2019-02-19T20:25:54.182Z,54.65
2019-02-19T20:28:24.654Z,54.53
2019-02-19T20:30:55.080Z,55.26
2019-02-19T20:33:25.687Z,55.41
2019-02-19T20:35:57.931Z,55.88
2019-02-19T20:38:28.256Z,55.88
2019-02-19T20:40:58.777Z,56.92
2019-02-19T20:43:29.169Z,57.43
2019-02-19T20:45:59.644Z,57.98
2019-02-19T20:48:30.009Z,59.68
2019-02-19T20:51:00.444Z,59.68
2019-02-19T20:53:30.873Z,59.64
2019-02-19T20:56:01.264Z,60.55
2019-02-19T20:58:33.846Z,61.91
2019-02-19T21:01:03.818Z,61.91
2019-02-19T21:03:34.292Z,62.49
2019-02-19T21:06:04.670Z,62.52
2019-02-19T21:08:35.051Z,62.86
2019-02-19T21:11:05.534Z,63.80
2019-02-19T21:13:35.955Z,63.80
2019-02-19T21:16:06.344Z,64.69
2019-02-19T21:18:36.839Z,64.69
2019-02-19T21:21:07.234Z,65.56
2019-02-19T21:23:37.633Z,66.06
2019-02-19T21:26:08.047Z,65.74
2019-02-19T21:28:38.466Z,66.27
2019-02-19T21:31:08.908Z,67.30
2019-02-19T21:33:39.337Z,67.30
2019-02-19T21:36:09.896Z,67.89
2019-02-19T21:38:40.326Z,68.71
2019-02-19T21:41:10.728Z,69.13
2019-02-19T21:43:41.161Z,69.13
2019-02-19T21:46:11.543Z,68.97
2019-02-19T21:48:47.976Z,68.97
2019-02-19T21:51:14.507Z,69.06
2019-02-19T21:53:44.894Z,69.87
2019-02-19T21:56:15.286Z,69.68
2019-02-19T21:58:45.694Z,70.20
2019-02-19T22:01:16.080Z,70.20
2019-02-19T22:03:46.490Z,70.58
2019-02-19T22:06:16.874Z,70.88
2019-02-19T22:08:47.249Z,71.02
2019-02-19T22:11:17.648Z,71.65
2019-02-19T22:13:48.032Z,71.65
2019-02-19T22:16:18.452Z,72.48
2019-02-19T22:18:48.845Z,72.36
2019-02-19T22:21:23.526Z,72.66
2019-02-19T22:23:53.955Z,72.66
2019-02-19T22:26:24.373Z,72.65
2019-02-19T22:28:54.767Z,72.48
2019-02-19T22:31:25.179Z,71.68
2019-02-19T22:33:53.998Z,72.52
2019-02-19T22:36:22.801Z,71.67
2019-02-19T22:38:55.135Z,71.22
2019-02-19T22:41:25.514Z,70.22
2019-02-19T22:43:55.941Z,70.22
2019-02-19T22:46:26.330Z,69.89
2019-02-19T22:48:56.700Z,68.50
2019-02-19T22:51:27.100Z,67.77
2019-02-19T22:54:02.106Z,67.10
2019-02-19T22:56:34.069Z,67.77
2019-02-19T22:59:04.477Z,67.25
2019-02-19T23:01:36.441Z,66.62
2019-02-19T23:04:06.846Z,66.58
2019-02-19T23:06:37.261Z,65.93
2019-02-19T23:09:07.656Z,65.85
2019-02-19T23:11:38.057Z,65.36
2019-02-19T23:14:08.454Z,65.20
2019-02-19T23:16:38.828Z,66.00
2019-02-19T23:19:09.226Z,65.64
2019-02-19T23:21:39.608Z,65.55
2019-02-19T23:24:10.005Z,64.74
2019-02-19T23:26:40.371Z,64.77
2019-02-19T23:29:10.752Z,64.96
2019-02-19T23:31:41.153Z,65.41
2019-02-19T23:34:11.605Z,66.13
2019-02-19T23:36:43.593Z,66.44
2019-02-19T23:39:14.034Z,66.13
2019-02-19T23:41:45.398Z,67.00
2019-02-19T23:44:15.798Z,67.00
2019-02-19T23:46:46.192Z,66.08
2019-02-19T23:49:16.611Z,66.33
2019-02-19T23:51:47.005Z,66.92
2019-02-19T23:54:17.411Z,67.13
2019-02-19T23:56:47.826Z,66.48
2019-02-19T23:59:18.244Z,66.34
